Rome, Georgia
Current Conditions -  °F | °C
As of 2:53 PM on Friday 19 Dec 2014 (Local Time) from KRMG Reporting Station
Clear Clear  
Wind Chill: 46°   Ceiling: Unl
Heat Index: 48°   Visibility: 10mi
Dew Point: 32°   Wind: 5mph
Humidity: 54%   Direction: 300°WNW
Pressure: 30.13"   Gusts: NA
Location:  34.25°N, 85.17°W
Report Text: KRMG 191953Z AUTO 30004KT 10SM CLR 09/00 A3013 RMK AO2 SLP203 T00890000
Loading
Personal Weather Stations






























Interactive Weather Map New forecast layout! Learn more

10-Day Weather Forecast

Advertisements
Track Severe Weather on mobile